Time;durP1;ratioP1;P1;durP2;ratioP2;P2;SDS_P1;SDS_P2;PMS_P1;PMS_P2;Temp;Humidity;BMP_temperature;BMP_pressure;BME280_temperature;BME280_humidity;BME280_pressure;Samples;Min_cycle;Max_cycle;Signal;HPM_P1;HPM_P2
2022/12/28 00:01:17;;;;;;;11.20;3.75;;;7.40;99.90;;;;;;5015070;28;93393;-77
2022/12/28 00:03:45;;;;;;;6.97;3.97;;;7.40;99.90;;;;;;4997469;28;95638;-76
2022/12/28 00:06:14;;;;;;;7.78;4.10;;;7.40;99.90;;;;;;4977137;28;92482;-76
2022/12/28 00:08:41;;;;;;;5.65;3.85;;;7.40;99.90;;;;;;4994036;28;92540;-76
2022/12/28 00:11:13;;;;;;;7.13;3.65;;;7.40;99.90;;;;;;4994852;28;93187;-76
2022/12/28 00:13:46;;;;;;;4.40;3.47;;;7.40;99.90;;;;;;4995699;28;92936;-76
2022/12/28 00:16:19;;;;;;;9.20;3.65;;;7.30;99.90;;;;;;4995212;28;92502;-76
2022/12/28 00:18:46;;;;;;;7.95;3.80;;;7.30;99.90;;;;;;4994260;28;92819;-76
2022/12/28 00:21:13;;;;;;;8.13;3.50;;;7.40;99.90;;;;;;4993724;28;95677;-76
2022/12/28 00:23:40;;;;;;;7.88;3.80;;;7.40;99.90;;;;;;4993331;28;98085;-77
2022/12/28 00:26:12;;;;;;;9.32;4.10;;;7.30;99.90;;;;;;4977460;28;92448;-77
2022/12/28 00:28:40;;;;;;;7.30;4.40;;;7.40;99.90;;;;;;4977450;28;93011;-77
2022/12/28 00:31:07;;;;;;;6.00;3.97;;;7.30;99.90;;;;;;4993667;28;93679;-76
2022/12/28 00:33:34;;;;;;;5.03;4.05;;;7.40;99.90;;;;;;4994924;28;92921;-76
2022/12/28 00:36:01;;;;;;;6.70;3.58;;;7.40;99.90;;;;;;4993600;28;92386;-76
2022/12/28 00:38:32;;;;;;;6.25;3.75;;;7.30;99.90;;;;;;4993743;28;91767;-76
2022/12/28 00:40:59;;;;;;;8.68;4.82;;;7.30;99.90;;;;;;4993995;28;93678;-77
2022/12/28 00:43:26;;;;;;;7.13;4.35;;;7.30;99.90;;;;;;4994539;28;92972;-77
2022/12/28 00:45:53;;;;;;;6.82;3.95;;;7.30;99.90;;;;;;4976225;28;94837;-77
2022/12/28 00:48:20;;;;;;;5.80;3.85;;;7.30;99.90;;;;;;4993204;28;92497;-77
2022/12/28 00:50:47;;;;;;;9.55;4.55;;;7.30;99.90;;;;;;4994624;28;93264;-77
2022/12/28 00:53:14;;;;;;;6.97;4.13;;;7.30;99.90;;;;;;4994527;28;92926;-77
2022/12/28 00:55:41;;;;;;;11.40;4.60;;;7.30;99.90;;;;;;4994997;28;92359;-77
2022/12/28 00:58:09;;;;;;;6.75;4.03;;;7.30;99.90;;;;;;4993761;28;92938;-77
2022/12/28 01:00:36;;;;;;;6.70;4.05;;;7.30;99.90;;;;;;4994604;28;93319;-77
2022/12/28 01:03:03;;;;;;;9.43;4.90;;;7.30;99.90;;;;;;4980623;28;96083;-77
2022/12/28 01:05:31;;;;;;;7.05;4.88;;;7.30;99.90;;;;;;4979446;28;93039;-78
2022/12/28 01:07:58;;;;;;;7.15;3.88;;;7.30;99.90;;;;;;4996840;28;92542;-77
2022/12/28 01:10:25;;;;;;;5.43;3.70;;;7.30;99.90;;;;;;4994985;28;97858;-77
2022/12/28 01:12:53;;;;;;;9.20;4.03;;;7.30;99.90;;;;;;4997623;28;95508;-77
2022/12/28 01:15:20;;;;;;;9.60;3.97;;;7.30;99.90;;;;;;4997737;28;92372;-77
2022/12/28 01:17:47;;;;;;;7.28;4.22;;;7.30;99.90;;;;;;4996352;28;92573;-77
2022/12/28 01:20:14;;;;;;;6.07;4.05;;;7.30;99.90;;;;;;4997834;28;93233;-77
2022/12/28 01:22:42;;;;;;;6.85;4.07;;;7.30;99.90;;;;;;4996435;28;92700;-77
2022/12/28 01:25:09;;;;;;;8.88;3.97;;;7.30;99.90;;;;;;4998014;28;92432;-77
2022/12/28 01:27:36;;;;;;;7.57;3.67;;;7.40;99.90;;;;;;4979975;28;91805;-77
2022/12/28 01:30:04;;;;;;;6.57;4.15;;;7.40;99.90;;;;;;4997733;28;93704;-77
2022/12/28 01:32:31;;;;;;;7.68;4.18;;;7.40;99.90;;;;;;4979694;28;92799;-76
2022/12/28 01:34:59;;;;;;;8.50;4.47;;;7.40;99.90;;;;;;4995146;28;94976;-77
2022/12/28 01:37:26;;;;;;;7.28;4.50;;;7.40;99.90;;;;;;4995676;28;96853;-78
2022/12/28 01:39:53;;;;;;;7.85;3.97;;;7.40;99.90;;;;;;4996370;28;93384;-77
2022/12/28 01:42:19;;;;;;;9.07;4.10;;;7.40;99.90;;;;;;4995771;28;95804;-77
2022/12/28 01:44:51;;;;;;;4.15;3.72;;;7.40;99.90;;;;;;4996071;28;92579;-76
2022/12/28 01:47:32;;;;;;;4.07;3.67;;;7.40;99.90;;;;;;4996229;28;93178;-77
2022/12/28 01:50:10;;;;;;;8.23;4.10;;;7.30;99.90;;;;;;4995909;28;95920;-76
2022/12/28 01:52:54;;;;;;;5.20;4.63;;;7.40;99.90;;;;;;4997463;28;91816;-77
2022/12/28 01:55:27;;;;;;;9.38;4.75;;;7.30;99.90;;;;;;4995673;28;92438;-76
2022/12/28 01:58:00;;;;;;;8.25;4.50;;;7.40;99.90;;;;;;4995844;28;92616;-76
2022/12/28 02:00:28;;;;;;;7.72;4.50;;;7.40;99.90;;;;;;4977604;28;98472;-76
2022/12/28 02:03:14;;;;;;;8.95;5.25;;;7.40;99.90;;;;;;4995671;28;98364;-76
2022/12/28 02:05:49;;;;;;;9.23;4.68;;;7.50;99.90;;;;;;4994671;28;92493;-77
2022/12/28 02:08:28;;;;;;;8.50;5.65;;;7.50;99.90;;;;;;4996242;28;92573;-77
2022/12/28 02:10:56;;;;;;;6.15;4.30;;;7.50;99.90;;;;;;4995182;28;94417;-76
2022/12/28 02:13:24;;;;;;;10.77;5.15;;;7.40;99.90;;;;;;4978038;28;94620;-77
2022/12/28 02:15:51;;;;;;;7.50;5.15;;;7.50;99.90;;;;;;4997082;28;92465;-77
2022/12/28 02:18:19;;;;;;;7.18;5.22;;;7.50;99.90;;;;;;4979323;28;91871;-77
2022/12/28 02:20:55;;;;;;;7.93;4.03;;;7.50;99.90;;;;;;4995282;28;93091;-77
2022/12/28 02:23:26;;;;;;;5.97;4.60;;;7.50;99.90;;;;;;4995383;28;95504;-77
2022/12/28 02:26:20;;;;;;;7.93;4.20;;;7.50;99.90;;;;;;4994283;28;94929;-76
2022/12/28 02:29:18;;;;;;;8.02;4.18;;;7.50;99.90;;;;;;5002289;28;92870;-76
2022/12/28 02:32:01;;;;;;;6.30;4.60;;;7.50;99.90;;;;;;4996540;28;93512;-77
2022/12/28 02:34:49;;;;;;;7.55;4.70;;;7.60;99.90;;;;;;4994988;28;93855;-76
2022/12/28 02:37:40;;;;;;;7.63;4.53;;;7.60;99.90;;;;;;4995393;28;92499;-76
2022/12/28 02:40:14;;;;;;;6.15;4.60;;;7.60;99.90;;;;;;4996651;28;93903;-77
2022/12/28 02:42:43;;;;;;;12.32;5.28;;;7.60;99.90;;;;;;4995471;28;93267;-76
2022/12/28 02:51:31;;;;;;;7.32;4.90;;;7.50;99.90;;;;;;4995300;28;92532;-77
2022/12/28 02:54:07;;;;;;;8.15;5.28;;;7.60;99.90;;;;;;4995105;28;95889;-77
2022/12/28 02:56:59;;;;;;;6.65;5.93;;;7.50;99.90;;;;;;4994574;28;98886;-77
2022/12/28 02:59:47;;;;;;;7.97;4.68;;;7.50;99.90;;;;;;4996714;28;93181;-77
2022/12/28 03:02:32;;;;;;;8.27;4.20;;;7.50;99.90;;;;;;4996298;28;92419;-77
2022/12/28 03:08:18;;;;;;;7.13;4.85;;;7.50;99.90;;;;;;4996244;28;93442;-76
2022/12/28 03:08:19;;;;;;;8.30;5.43;;;7.50;99.90;;;;;;4994748;28;94335;-77
2022/12/28 03:10:58;;;;;;;8.27;4.90;;;7.40;99.90;;;;;;4994522;28;92576;-78
2022/12/28 03:13:42;;;;;;;9.52;5.60;;;7.50;99.90;;;;;;4978794;28;92154;-77
2022/12/28 03:16:12;;;;;;;11.90;6.00;;;7.50;99.90;;;;;;4995963;28;93219;-77
2022/12/28 03:33:00;;;;;;;11.43;6.00;;;7.50;99.90;;;;;;4994591;28;92522;-76
2022/12/28 03:35:46;;;;;;;8.77;6.70;;;7.50;99.90;;;;;;4994384;28;93042;-76
2022/12/28 03:38:25;;;;;;;7.93;5.97;;;7.60;99.90;;;;;;4994531;28;93214;-77
2022/12/28 03:41:08;;;;;;;10.10;6.28;;;7.60;99.90;;;;;;4994450;28;95606;-76
2022/12/28 03:43:52;;;;;;;7.30;6.18;;;7.70;99.90;;;;;;4994213;28;92608;-76
2022/12/28 03:46:41;;;;;;;9.68;6.95;;;7.60;99.90;;;;;;4994433;28;92611;-76
2022/12/28 03:49:08;;;;;;;12.52;6.70;;;7.70;99.90;;;;;;4992850;28;96928;-76
2022/12/28 03:51:36;;;;;;;9.23;6.45;;;7.60;99.90;;;;;;4977444;28;97726;-76
2022/12/28 03:54:14;;;;;;;10.32;6.10;;;7.70;99.90;;;;;;4978814;28;92540;-76
2022/12/28 03:56:47;;;;;;;9.88;6.70;;;7.70;99.90;;;;;;4977587;28;92508;-76
2022/12/28 03:59:15;;;;;;;8.63;6.55;;;7.70;99.90;;;;;;4993879;28;95682;-76
2022/12/28 04:01:46;;;;;;;10.85;6.28;;;7.80;99.90;;;;;;4978295;28;94203;-76
2022/12/28 04:04:17;;;;;;;10.15;7.40;;;7.70;99.90;;;;;;4994633;28;93090;-76
2022/12/28 04:06:45;;;;;;;9.40;6.18;;;7.80;99.90;;;;;;5003695;28;91727;-76
2022/12/28 04:09:12;;;;;;;10.07;6.22;;;7.80;99.90;;;;;;4993851;28;95476;-76
2022/12/28 04:11:40;;;;;;;7.10;5.35;;;7.80;99.90;;;;;;4977401;28;95655;-76
2022/12/28 04:14:14;;;;;;;6.07;5.45;;;7.80;99.90;;;;;;4992815;28;94818;-77
2022/12/28 04:16:42;;;;;;;11.77;5.88;;;7.90;99.90;;;;;;4993928;28;92548;-77
2022/12/28 04:19:13;;;;;;;8.63;5.85;;;7.90;99.90;;;;;;4977883;28;95517;-77
2022/12/28 04:21:41;;;;;;;6.68;5.22;;;7.90;99.90;;;;;;4993335;28;95505;-77
2022/12/28 04:24:09;;;;;;;5.97;5.25;;;7.90;99.90;;;;;;4993765;28;92478;-77
2022/12/28 04:26:36;;;;;;;5.43;3.97;;;7.90;99.90;;;;;;4993903;28;92550;-77
2022/12/28 04:29:03;;;;;;;8.15;5.90;;;7.90;99.90;;;;;;4960668;28;95513;-77
2022/12/28 04:31:36;;;;;;;6.38;4.90;;;7.90;99.90;;;;;;4993867;28;92751;-77
2022/12/28 04:34:09;;;;;;;6.03;4.85;;;8.00;99.90;;;;;;4978214;28;92527;-77
2022/12/28 04:36:40;;;;;;;5.47;4.50;;;8.00;99.90;;;;;;4996782;28;92444;-77
2022/12/28 04:39:12;;;;;;;5.38;4.53;;;8.00;99.90;;;;;;4979793;28;96710;-77
2022/12/28 04:41:39;;;;;;;5.60;4.43;;;8.00;99.90;;;;;;4998390;28;94240;-77
2022/12/28 04:44:06;;;;;;;5.78;4.82;;;8.10;99.90;;;;;;4996848;28;92468;-77
2022/12/28 04:46:33;;;;;;;5.97;4.43;;;8.10;99.90;;;;;;4997229;28;92605;-77
2022/12/28 04:49:00;;;;;;;5.97;4.40;;;8.10;99.90;;;;;;4996962;28;93033;-77
2022/12/28 04:51:28;;;;;;;5.25;3.55;;;8.10;99.90;;;;;;4980361;28;95547;-77
2022/12/28 04:53:56;;;;;;;5.07;4.57;;;8.10;99.90;;;;;;4998198;28;92333;-77
2022/12/28 04:56:25;;;;;;;5.70;4.50;;;8.10;99.90;;;;;;4997613;28;92717;-77
2022/12/28 04:58:57;;;;;;;4.57;4.07;;;8.10;99.90;;;;;;4996458;28;93202;-77
2022/12/28 05:01:24;;;;;;;5.55;3.83;;;8.20;99.90;;;;;;4997952;28;93277;-77
2022/12/28 05:03:53;;;;;;;4.22;3.83;;;8.20;99.90;;;;;;4995564;28;94831;-77
2022/12/28 05:06:26;;;;;;;4.53;3.78;;;8.20;99.90;;;;;;4997009;28;92638;-77
2022/12/28 05:08:54;;;;;;;3.92;3.53;;;8.20;99.90;;;;;;4996349;28;96042;-77
2022/12/28 05:11:24;;;;;;;4.82;4.30;;;8.20;99.90;;;;;;4997833;28;93059;-77
2022/12/28 05:13:51;;;;;;;5.95;4.45;;;8.20;99.90;;;;;;4997853;28;92362;-77
2022/12/28 05:16:21;;;;;;;4.13;3.67;;;8.20;99.90;;;;;;4997928;28;92443;-77
2022/12/28 05:18:48;;;;;;;5.47;4.50;;;8.20;99.90;;;;;;4996200;28;95964;-77
2022/12/28 05:21:19;;;;;;;5.47;4.28;;;8.20;99.90;;;;;;4996935;28;95790;-77
2022/12/28 05:23:46;;;;;;;4.60;4.18;;;8.30;99.90;;;;;;4997113;28;92616;-77
2022/12/28 05:26:16;;;;;;;4.70;4.00;;;8.30;99.90;;;;;;4996588;28;92561;-77
2022/12/28 05:28:43;;;;;;;4.78;4.20;;;8.30;99.90;;;;;;4995129;28;95674;-77
2022/12/28 05:31:13;;;;;;;4.00;3.70;;;8.30;99.90;;;;;;4996329;28;95452;-77
2022/12/28 05:33:41;;;;;;;6.00;3.92;;;8.30;99.90;;;;;;4997951;28;92548;-77
2022/12/28 05:36:14;;;;;;;5.45;4.28;;;8.30;99.90;;;;;;4997631;28;92464;-76
2022/12/28 05:38:42;;;;;;;5.63;4.13;;;8.40;99.90;;;;;;4996057;28;95825;-76
2022/12/28 05:41:13;;;;;;;5.22;4.72;;;8.40;99.90;;;;;;4979315;28;95720;-78
2022/12/28 05:43:40;;;;;;;5.88;4.57;;;8.40;99.90;;;;;;4997901;28;92458;-76
2022/12/28 05:46:10;;;;;;;4.68;4.22;;;8.40;99.90;;;;;;4996411;28;91680;-76
2022/12/28 05:48:39;;;;;;;5.05;4.55;;;8.50;99.90;;;;;;4996195;28;95810;-76
2022/12/28 05:51:09;;;;;;;5.28;4.78;;;8.50;99.90;;;;;;4996595;28;100268;-76
2022/12/28 05:53:37;;;;;;;5.07;4.63;;;8.50;99.90;;;;;;4995198;28;95644;-76
2022/12/28 05:56:13;;;;;;;4.75;4.25;;;8.50;99.90;;;;;;4979524;28;92461;-76
2022/12/28 05:58:42;;;;;;;6.22;5.30;;;8.60;99.90;;;;;;4996083;28;93489;-76
2022/12/28 06:01:12;;;;;;;5.82;4.72;;;8.60;99.90;;;;;;4979000;28;94820;-77
2022/12/28 06:03:39;;;;;;;5.18;4.72;;;8.60;99.90;;;;;;4995746;28;92647;-76
2022/12/28 06:06:11;;;;;;;6.15;5.18;;;8.60;99.90;;;;;;4995132;28;92517;-76
2022/12/28 06:08:39;;;;;;;6.80;5.53;;;8.60;99.90;;;;;;4979278;28;95619;-76
2022/12/28 06:11:10;;;;;;;5.50;5.00;;;8.60;99.90;;;;;;4995868;28;92169;-76
2022/12/28 06:13:37;;;;;;;5.50;4.70;;;8.70;99.90;;;;;;4995658;28;92570;-76
2022/12/28 06:16:34;;;;;;;4.93;4.45;;;8.70;99.90;;;;;;4996893;28;92488;-76
2022/12/28 06:19:10;;;;;;;5.55;5.05;;;8.80;99.90;;;;;;4994423;28;95887;-76
2022/12/28 06:21:38;;;;;;;4.55;4.15;;;8.80;99.90;;;;;;4997012;28;95360;-76
2022/12/28 06:24:07;;;;;;;5.35;4.85;;;8.70;99.90;;;;;;4995753;28;92959;-76
2022/12/28 06:26:35;;;;;;;5.80;5.15;;;8.80;99.90;;;;;;4995368;28;92454;-76
2022/12/28 06:29:03;;;;;;;6.10;5.50;;;8.80;99.90;;;;;;4996387;28;93135;-76
2022/12/28 06:31:33;;;;;;;6.75;6.05;;;8.90;99.90;;;;;;4996815;28;93303;-76
2022/12/28 06:34:01;;;;;;;7.70;6.63;;;8.90;99.90;;;;;;4996790;28;92599;-76
2022/12/28 06:36:33;;;;;;;6.90;6.20;;;8.90;99.90;;;;;;4997200;28;91706;-76
2022/12/28 06:39:03;;;;;;;6.65;6.05;;;9.00;99.90;;;;;;4994957;28;94392;-76
2022/12/28 06:41:30;;;;;;;7.20;5.75;;;9.00;99.90;;;;;;4978596;28;94051;-76
2022/12/28 06:43:58;;;;;;;7.05;6.32;;;9.00;99.90;;;;;;4994537;28;94888;-76
2022/12/28 06:46:28;;;;;;;6.68;5.70;;;9.00;99.90;;;;;;4994972;28;99574;-77
2022/12/28 06:48:56;;;;;;;7.47;6.78;;;9.00;99.90;;;;;;4996335;28;93326;-76
2022/12/28 06:51:25;;;;;;;7.38;5.72;;;9.00;99.90;;;;;;4996232;28;93298;-76
2022/12/28 06:53:53;;;;;;;7.75;7.05;;;9.10;99.90;;;;;;4978620;28;92534;-76
2022/12/28 06:56:25;;;;;;;8.65;7.65;;;9.10;99.90;;;;;;4994943;28;92939;-76
2022/12/28 06:58:53;;;;;;;8.73;7.55;;;9.10;99.90;;;;;;4977824;28;95929;-76
2022/12/28 07:01:34;;;;;;;7.40;6.70;;;9.10;99.90;;;;;;4995225;28;95425;-76
2022/12/28 07:04:02;;;;;;;7.50;6.77;;;9.20;99.90;;;;;;4995157;28;92646;-76
2022/12/28 07:06:34;;;;;;;8.52;7.72;;;9.20;99.90;;;;;;4995004;28;92533;-76
2022/12/28 07:09:03;;;;;;;7.32;6.55;;;9.20;99.90;;;;;;4993749;28;95774;-76
2022/12/28 07:11:30;;;;;;;7.97;7.18;;;9.30;99.90;;;;;;4994757;28;95104;-76
2022/12/28 07:13:57;;;;;;;7.47;6.78;;;9.30;99.90;;;;;;4996174;28;92513;-76
2022/12/28 07:16:26;;;;;;;8.02;6.43;;;9.30;99.90;;;;;;4995747;28;97580;-76
2022/12/28 07:18:54;;;;;;;7.18;6.47;;;9.30;99.90;;;;;;4994619;28;93325;-76
2022/12/28 07:21:27;;;;;;;6.60;5.80;;;9.40;99.90;;;;;;4995550;28;93027;-76
2022/12/28 07:23:55;;;;;;;7.57;6.88;;;9.40;99.90;;;;;;4978271;28;92399;-76
2022/12/28 07:26:26;;;;;;;6.53;5.93;;;9.50;99.90;;;;;;4996056;28;91710;-76
2022/12/28 07:28:55;;;;;;;7.20;6.50;;;9.50;99.90;;;;;;4977964;28;95699;-76
2022/12/28 07:31:24;;;;;;;8.27;6.65;;;9.50;99.90;;;;;;4994234;28;93053;-76
2022/12/28 07:33:54;;;;;;;6.88;6.25;;;9.60;99.90;;;;;;4993470;28;94925;-76
2022/12/28 07:36:23;;;;;;;7.32;6.63;;;9.60;99.90;;;;;;4995568;28;92501;-76
2022/12/28 07:38:50;;;;;;;7.13;6.50;;;9.60;99.90;;;;;;4995558;28;93258;-77
2022/12/28 07:41:26;;;;;;;7.35;6.65;;;9.60;99.90;;;;;;4977601;28;93214;-77
2022/12/28 07:43:57;;;;;;;7.50;6.80;;;9.70;99.90;;;;;;4994700;28;92412;-77
2022/12/28 07:46:26;;;;;;;8.15;7.35;;;9.60;99.90;;;;;;4977668;28;92512;-77
2022/12/28 07:48:55;;;;;;;9.38;8.07;;;9.70;99.90;;;;;;4995518;28;93260;-77
2022/12/28 07:51:27;;;;;;;10.02;9.00;;;9.70;99.90;;;;;;4995697;28;93133;-77
2022/12/28 07:53:56;;;;;;;10.10;9.05;;;9.70;99.90;;;;;;4978018;28;92508;-77
2022/12/28 07:56:24;;;;;;;9.85;8.95;;;9.80;99.90;;;;;;4977681;28;92809;-77
2022/12/28 07:58:54;;;;;;;11.27;9.95;;;9.80;99.90;;;;;;4992944;28;95561;-77
2022/12/28 08:01:24;;;;;;;10.20;8.75;;;9.80;99.90;;;;;;4995583;28;95411;-77
2022/12/28 08:03:54;;;;;;;10.05;9.05;;;9.80;99.90;;;;;;4995505;28;92443;-77
2022/12/28 08:06:22;;;;;;;10.30;9.40;;;9.80;99.90;;;;;;4993269;28;92430;-77
2022/12/28 08:08:57;;;;;;;11.27;10.13;;;9.90;99.90;;;;;;4995049;28;93326;-77
2022/12/28 08:11:28;;;;;;;10.20;9.20;;;9.90;99.90;;;;;;4997562;28;93287;-77
2022/12/28 08:13:57;;;;;;;10.65;9.50;;;10.00;99.90;;;;;;4999287;28;92345;-77
2022/12/28 08:16:25;;;;;;;12.48;9.25;;;10.00;99.90;;;;;;4997606;28;91772;-77
2022/12/28 08:18:53;;;;;;;11.25;10.05;;;10.00;99.90;;;;;;4998708;28;93305;-77
2022/12/28 08:21:27;;;;;;;11.23;10.10;;;10.00;99.90;;;;;;4997636;28;93107;-77
2022/12/28 08:23:54;;;;;;;10.73;9.25;;;10.00;99.90;;;;;;4996050;28;94895;-77
2022/12/28 08:26:24;;;;;;;10.35;9.32;;;10.00;99.90;;;;;;4998427;28;92425;-77
2022/12/28 08:28:55;;;;;;;11.35;9.70;;;10.00;99.90;;;;;;4997333;28;93233;-77
2022/12/28 08:31:34;;;;;;;12.18;10.38;;;10.00;99.90;;;;;;4997348;28;93184;-77
2022/12/28 08:34:02;;;;;;;11.80;10.35;;;10.10;99.90;;;;;;4996854;28;92478;-77
2022/12/28 08:36:29;;;;;;;12.27;11.07;;;10.10;99.90;;;;;;4997832;28;92358;-77
2022/12/28 08:38:56;;;;;;;11.90;10.65;;;10.10;99.90;;;;;;4979133;28;96154;-77
2022/12/28 08:41:25;;;;;;;11.88;10.40;;;10.10;99.90;;;;;;4964044;28;96016;-77
2022/12/28 08:43:53;;;;;;;12.80;11.23;;;10.10;99.90;;;;;;4996662;28;92532;-77
2022/12/28 08:46:23;;;;;;;11.15;9.45;;;10.20;99.90;;;;;;4997797;28;92930;-77
2022/12/28 08:48:51;;;;;;;10.50;9.25;;;10.20;99.90;;;;;;4997066;28;95669;-77
2022/12/28 08:51:40;;;;;;;10.93;8.95;;;10.20;99.90;;;;;;4997895;28;95482;-77
2022/12/28 08:54:09;;;;;;;9.85;8.85;;;10.30;99.90;;;;;;4981174;28;93069;-77
2022/12/28 08:56:39;;;;;;;10.50;8.77;;;10.30;99.90;;;;;;4996877;28;92623;-78
2022/12/28 08:59:06;;;;;;;10.68;8.35;;;10.30;99.90;;;;;;4998104;28;93524;-77
2022/12/28 09:01:38;;;;;;;9.27;7.90;;;10.30;99.90;;;;;;4997454;28;93043;-77
2022/12/28 09:04:19;;;;;;;8.73;7.40;;;10.30;99.90;;;;;;4998425;28;92463;-77
2022/12/28 09:06:46;;;;;;;9.80;7.55;;;10.30;99.90;;;;;;5009528;28;91735;-76
2022/12/28 09:09:16;;;;;;;7.15;6.45;;;10.30;99.90;;;;;;4999662;28;95971;-76
2022/12/28 09:11:46;;;;;;;7.03;6.38;;;10.40;99.90;;;;;;5018072;28;93345;-76
2022/12/28 09:14:13;;;;;;;7.47;6.63;;;10.40;99.90;;;;;;5016666;28;94791;-76
2022/12/28 09:16:48;;;;;;;9.20;8.38;;;10.40;99.90;;;;;;5001387;28;92489;-76
2022/12/28 09:19:15;;;;;;;9.70;7.28;;;10.40;99.90;;;;;;5017975;28;93005;-76
2022/12/28 09:21:44;;;;;;;9.00;8.05;;;10.40;99.90;;;;;;4982494;28;92874;-77
2022/12/28 09:24:12;;;;;;;8.35;7.55;;;10.40;99.90;;;;;;5017427;28;92438;-77
2022/12/28 09:26:39;;;;;;;9.25;7.68;;;10.40;99.90;;;;;;5017677;28;92369;-77
2022/12/28 09:29:09;;;;;;;8.30;7.45;;;10.40;99.90;;;;;;4999813;28;93270;-77
2022/12/28 09:31:37;;;;;;;8.23;7.43;;;10.40;99.90;;;;;;5017741;28;91836;-77
2022/12/28 09:34:10;;;;;;;9.95;8.38;;;10.40;99.90;;;;;;5017870;28;92349;-77
2022/12/28 09:36:57;;;;;;;9.02;8.10;;;10.40;99.90;;;;;;4985822;28;93192;-77
2022/12/28 09:39:24;;;;;;;8.70;7.80;;;10.40;99.90;;;;;;4981223;28;98062;-77
2022/12/28 09:41:57;;;;;;;9.23;7.60;;;10.40;99.90;;;;;;5017186;28;95310;-77
2022/12/28 09:44:49;;;;;;;7.88;7.07;;;10.50;99.90;;;;;;5017432;28;92381;-77
2022/12/28 09:47:21;;;;;;;7.90;6.97;;;10.50;99.90;;;;;;4999992;28;92504;-77
2022/12/28 09:49:57;;;;;;;7.82;7.13;;;10.50;99.90;;;;;;5017475;28;93249;-77
2022/12/28 09:52:35;;;;;;;7.72;6.93;;;10.50;99.90;;;;;;4999588;28;92559;-77
2022/12/28 09:55:12;;;;;;;7.93;7.13;;;10.50;99.90;;;;;;5017679;28;92971;-77
2022/12/28 09:57:43;;;;;;;7.45;6.60;;;10.60;99.90;;;;;;5000123;28;91595;-77
2022/12/28 10:00:17;;;;;;;7.85;7.05;;;10.60;99.90;;;;;;5017339;28;92570;-77
2022/12/28 10:02:50;;;;;;;9.77;7.10;;;10.60;99.90;;;;;;5017017;28;93017;-77
2022/12/28 10:05:19;;;;;;;7.07;6.13;;;10.60;99.90;;;;;;4981587;28;94854;-77
2022/12/28 10:07:47;;;;;;;8.70;7.80;;;10.60;99.90;;;;;;5016689;28;92652;-77
2022/12/28 10:10:16;;;;;;;8.05;7.25;;;10.60;99.90;;;;;;4999443;28;93518;-77
2022/12/28 10:12:44;;;;;;;8.30;7.50;;;10.70;99.90;;;;;;4998949;28;93200;-77
2022/12/28 10:15:13;;;;;;;8.82;7.80;;;10.60;99.90;;;;;;4999458;28;92474;-77
2022/12/28 10:17:40;;;;;;;9.30;7.32;;;10.70;99.90;;;;;;4999021;28;92528;-77
2022/12/28 10:20:18;;;;;;;8.75;7.85;;;10.70;99.90;;;;;;4982131;28;96142;-76
2022/12/28 10:22:50;;;;;;;8.73;7.93;;;10.80;99.90;;;;;;4999463;28;92934;-77
2022/12/28 10:25:22;;;;;;;7.82;6.97;;;10.80;99.90;;;;;;4998972;28;92689;-77
2022/12/28 10:27:49;;;;;;;7.90;6.90;;;10.80;99.90;;;;;;4982210;28;92512;-76
2022/12/28 10:30:18;;;;;;;7.47;6.78;;;10.80;99.90;;;;;;5015190;28;95674;-77
2022/12/28 10:32:51;;;;;;;8.40;7.68;;;10.90;99.90;;;;;;4997010;28;97876;-76
2022/12/28 10:35:24;;;;;;;8.30;7.47;;;10.90;99.90;;;;;;5017094;28;92472;-76
2022/12/28 10:37:58;;;;;;;8.55;7.75;;;11.00;99.90;;;;;;5016764;28;92499;-76
2022/12/28 10:40:33;;;;;;;7.38;6.57;;;11.00;99.90;;;;;;5016327;28;93353;-76
2022/12/28 10:43:00;;;;;;;6.82;6.18;;;11.00;99.90;;;;;;4999030;28;93196;-76
2022/12/28 10:45:45;;;;;;;7.88;7.07;;;11.00;99.90;;;;;;5016345;28;92566;-77
2022/12/28 10:48:18;;;;;;;8.40;6.93;;;11.00;99.90;;;;;;5017097;28;92275;-76
2022/12/28 10:50:51;;;;;;;6.00;5.50;;;11.10;99.90;;;;;;4998052;28;95643;-77
2022/12/28 10:53:53;;;;;;;5.47;4.97;;;11.00;99.90;;;;;;5016835;28;93094;-77
2022/12/28 10:56:25;;;;;;;6.20;5.68;;;11.10;99.90;;;;;;4972708;28;97128;-77
2022/12/28 10:59:08;;;;;;;6.10;5.50;;;11.00;99.90;;;;;;4998455;28;92936;-77
2022/12/28 11:01:36;;;;;;;5.80;5.30;;;11.10;99.90;;;;;;4981361;28;95911;-77
2022/12/28 11:04:16;;;;;;;5.63;5.10;;;11.10;99.90;;;;;;4998387;28;97162;-77
2022/12/28 11:06:57;;;;;;;5.50;4.90;;;11.10;99.90;;;;;;4994663;28;92473;-77
2022/12/28 11:09:25;;;;;;;5.82;5.00;;;11.10;99.90;;;;;;4994737;28;92500;-77
2022/12/28 11:11:55;;;;;;;4.60;4.10;;;11.10;99.90;;;;;;4995707;28;93273;-77
2022/12/28 11:14:33;;;;;;;4.80;4.32;;;11.20;99.90;;;;;;4996079;28;93324;-77
2022/12/28 11:17:16;;;;;;;4.43;4.00;;;11.30;99.90;;;;;;4996776;28;92937;-77
2022/12/28 11:19:44;;;;;;;5.13;4.43;;;11.30;99.90;;;;;;4995990;28;92486;-77
2022/12/28 11:22:14;;;;;;;7.10;5.60;;;11.20;99.90;;;;;;4993329;28;97240;-77
2022/12/28 11:24:41;;;;;;;6.38;5.78;;;11.30;99.90;;;;;;4995613;28;95313;-77
2022/12/28 11:27:20;;;;;;;5.32;4.82;;;11.30;99.90;;;;;;4994677;28;92531;-77
2022/12/28 11:29:50;;;;;;;5.45;5.05;;;11.30;99.90;;;;;;4996051;28;92516;-77
2022/12/28 11:32:23;;;;;;;3.90;3.60;;;11.30;99.90;;;;;;4994596;28;97052;-77
2022/12/28 11:34:53;;;;;;;3.53;3.22;;;11.30;99.90;;;;;;4994145;28;96216;-77
2022/12/28 11:37:20;;;;;;;4.30;4.00;;;11.30;99.90;;;;;;4995804;28;92451;-78
2022/12/28 11:39:48;;;;;;;3.90;3.60;;;11.20;99.90;;;;;;4994581;28;91779;-78
2022/12/28 11:42:34;;;;;;;3.70;3.40;;;11.20;99.90;;;;;;4995754;28;92890;-78
2022/12/28 11:45:14;;;;;;;3.65;3.35;;;11.30;99.90;;;;;;4995723;28;92956;-78
2022/12/28 11:47:41;;;;;;;3.25;3.05;;;11.30;99.90;;;;;;4993064;28;94860;-77
2022/12/28 11:50:35;;;;;;;3.20;3.00;;;11.30;99.90;;;;;;4994500;28;92538;-77
2022/12/28 11:53:20;;;;;;;3.87;3.50;;;11.40;99.90;;;;;;4994034;28;95596;-77
2022/12/28 11:56:27;;;;;;;3.40;3.10;;;11.30;99.90;;;;;;4995482;28;93112;-76
2022/12/28 11:58:57;;;;;;;4.22;3.88;;;11.40;99.90;;;;;;4989559;28;93797;-77
2022/12/28 12:01:39;;;;;;;3.70;3.40;;;11.30;99.90;;;;;;4994018;28;92752;-77
2022/12/28 12:04:14;;;;;;;5.70;3.53;;;11.30;99.90;;;;;;4995279;28;93382;-76
2022/12/28 12:06:44;;;;;;;3.22;3.03;;;11.30;99.90;;;;;;5006136;28;93182;-76
2022/12/28 12:09:20;;;;;;;3.40;3.10;;;11.30;99.90;;;;;;4997569;28;92747;-77
2022/12/28 12:11:59;;;;;;;4.18;3.78;;;11.40;99.90;;;;;;5015294;28;92510;-77
2022/12/28 12:14:36;;;;;;;4.38;3.45;;;11.30;99.90;;;;;;5014106;28;96092;-77
2022/12/28 12:17:21;;;;;;;3.95;3.50;;;11.30;99.90;;;;;;5015249;28;94643;-77
2022/12/28 12:19:52;;;;;;;4.30;3.90;;;11.40;99.90;;;;;;5015280;28;92436;-76
2022/12/28 12:22:30;;;;;;;3.70;3.40;;;11.30;99.90;;;;;;5015299;28;92409;-77
2022/12/28 12:25:23;;;;;;;3.47;3.28;;;11.30;99.90;;;;;;5014895;28;93300;-77
2022/12/28 12:27:57;;;;;;;4.68;3.53;;;11.40;99.90;;;;;;5004439;28;93051;-77
2022/12/28 12:30:24;;;;;;;3.75;3.40;;;11.30;99.90;;;;;;5015322;28;92482;-77
2022/12/28 12:32:56;;;;;;;3.25;2.95;;;11.30;99.90;;;;;;4981475;28;92367;-77
2022/12/28 12:35:49;;;;;;;3.00;2.80;;;11.30;99.90;;;;;;4997315;28;93122;-77
2022/12/28 12:38:34;;;;;;;3.53;3.22;;;11.30;99.90;;;;;;5004269;28;93169;-77
2022/12/28 12:41:01;;;;;;;2.75;2.55;;;11.30;99.90;;;;;;5013744;28;95878;-77
2022/12/28 12:43:47;;;;;;;3.00;2.80;;;11.30;99.90;;;;;;5015145;28;92337;-77
2022/12/28 12:46:29;;;;;;;2.85;2.65;;;11.30;99.90;;;;;;4996564;28;95573;-77
2022/12/28 12:49:22;;;;;;;3.42;3.13;;;11.20;99.90;;;;;;4980332;28;94736;-77
2022/12/28 12:52:05;;;;;;;2.83;2.63;;;11.30;99.90;;;;;;5015099;28;92484;-77
2022/12/28 12:54:47;;;;;;;3.28;2.97;;;11.20;99.90;;;;;;5014752;28;92413;-77
2022/12/28 12:57:24;;;;;;;2.90;2.70;;;11.20;99.90;;;;;;4982748;28;95850;-77
2022/12/28 13:00:05;;;;;;;3.17;2.92;;;11.20;99.90;;;;;;5000634;28;93098;-77
2022/12/28 13:02:41;;;;;;;3.40;3.10;;;11.20;99.90;;;;;;5018278;28;92448;-77
2022/12/28 13:05:22;;;;;;;3.80;2.60;;;11.20;99.90;;;;;;4999585;28;92356;-77
2022/12/28 13:07:51;;;;;;;2.90;2.70;;;11.20;99.90;;;;;;5016724;28;97187;-77
2022/12/28 13:10:29;;;;;;;2.83;2.63;;;11.20;99.90;;;;;;5017840;28;95613;-77
2022/12/28 13:12:59;;;;;;;2.65;2.45;;;11.30;99.90;;;;;;5018185;28;92452;-76
2022/12/28 13:15:27;;;;;;;3.05;2.72;;;11.20;99.90;;;;;;5017635;28;92463;-77
2022/12/28 13:18:02;;;;;;;2.25;2.05;;;11.20;99.90;;;;;;4999651;28;95983;-77
2022/12/28 13:20:58;;;;;;;2.92;2.22;;;11.20;99.90;;;;;;5003137;28;93037;-76
2022/12/28 13:23:27;;;;;;;2.00;1.90;;;11.20;99.90;;;;;;5018070;28;92359;-76
2022/12/28 13:25:57;;;;;;;2.13;1.95;;;11.10;99.90;;;;;;4999684;28;91777;-77
2022/12/28 13:28:29;;;;;;;2.05;1.95;;;11.10;99.90;;;;;;5017930;28;93631;-76
2022/12/28 13:31:12;;;;;;;2.67;2.47;;;11.10;99.90;;;;;;5017749;28;93094;-76
2022/12/28 13:33:39;;;;;;;3.97;2.38;;;11.10;99.90;;;;;;4982175;28;94945;-76
2022/12/28 13:36:09;;;;;;;2.28;2.03;;;11.10;99.90;;;;;;5017536;28;92815;-77
2022/12/28 13:38:36;;;;;;;2.83;2.38;;;11.10;99.90;;;;;;4999498;28;95738;-77